sensor_id;sensor_type;location;lat;lon;timestamp;P1;durP1;ratioP1;P2;durP2;ratioP2
37407;SDS011;24866;50.248;8.252;2023-05-29T00:02:20;6.10;;;3.75;;
37407;SDS011;24866;50.248;8.252;2023-05-29T00:04:50;7.20;;;3.80;;
37407;SDS011;24866;50.248;8.252;2023-05-29T00:07:23;8.70;;;3.53;;
37407;SDS011;24866;50.248;8.252;2023-05-29T00:09:53;6.13;;;3.72;;
37407;SDS011;24866;50.248;8.252;2023-05-29T00:12:23;7.22;;;4.30;;
37407;SDS011;24866;50.248;8.252;2023-05-29T00:14:53;6.30;;;3.38;;
37407;SDS011;24866;50.248;8.252;2023-05-29T00:17:24;10.82;;;4.80;;
37407;SDS011;24866;50.248;8.252;2023-05-29T00:19:54;6.45;;;3.90;;
37407;SDS011;24866;50.248;8.252;2023-05-29T00:22:25;7.55;;;4.18;;
37407;SDS011;24866;50.248;8.252;2023-05-29T00:24:55;7.18;;;4.40;;
37407;SDS011;24866;50.248;8.252;2023-05-29T00:27:25;7.30;;;3.63;;
37407;SDS011;24866;50.248;8.252;2023-05-29T00:29:55;6.03;;;3.85;;
37407;SDS011;24866;50.248;8.252;2023-05-29T00:32:26;8.82;;;4.30;;
37407;SDS011;24866;50.248;8.252;2023-05-29T00:34:56;7.85;;;4.40;;
37407;SDS011;24866;50.248;8.252;2023-05-29T00:37:26;13.73;;;4.43;;
37407;SDS011;24866;50.248;8.252;2023-05-29T00:39:56;6.18;;;3.50;;
37407;SDS011;24866;50.248;8.252;2023-05-29T00:42:26;6.78;;;3.80;;
37407;SDS011;24866;50.248;8.252;2023-05-29T00:44:56;9.25;;;3.83;;
37407;SDS011;24866;50.248;8.252;2023-05-29T00:47:27;7.97;;;4.10;;
37407;SDS011;24866;50.248;8.252;2023-05-29T00:49:57;7.65;;;3.67;;
37407;SDS011;24866;50.248;8.252;2023-05-29T00:52:27;7.45;;;3.78;;
37407;SDS011;24866;50.248;8.252;2023-05-29T00:54:57;7.70;;;3.67;;
37407;SDS011;24866;50.248;8.252;2023-05-29T00:57:29;6.45;;;3.58;;
37407;SDS011;24866;50.248;8.252;2023-05-29T00:59:59;6.88;;;3.53;;
37407;SDS011;24866;50.248;8.252;2023-05-29T01:02:34;5.47;;;3.80;;
37407;SDS011;24866;50.248;8.252;2023-05-29T01:05:05;7.75;;;3.50;;
37407;SDS011;24866;50.248;8.252;2023-05-29T01:07:37;7.37;;;3.23;;
37407;SDS011;24866;50.248;8.252;2023-05-29T01:10:08;7.65;;;3.22;;
37407;SDS011;24866;50.248;8.252;2023-05-29T01:12:40;7.90;;;3.75;;
37407;SDS011;24866;50.248;8.252;2023-05-29T01:15:34;7.70;;;3.65;;
37407;SDS011;24866;50.248;8.252;2023-05-29T01:18:15;4.80;;;2.85;;
37407;SDS011;24866;50.248;8.252;2023-05-29T01:20:52;6.75;;;3.35;;
37407;SDS011;24866;50.248;8.252;2023-05-29T01:23:38;7.82;;;2.88;;
37407;SDS011;24866;50.248;8.252;2023-05-29T01:26:21;6.25;;;3.17;;
37407;SDS011;24866;50.248;8.252;2023-05-29T01:31:42;8.35;;;3.00;;
37407;SDS011;24866;50.248;8.252;2023-05-29T01:34:14;6.97;;;3.20;;
37407;SDS011;24866;50.248;8.252;2023-05-29T01:36:44;8.32;;;2.92;;
37407;SDS011;24866;50.248;8.252;2023-05-29T01:39:15;8.27;;;3.00;;
37407;SDS011;24866;50.248;8.252;2023-05-29T01:41:48;6.70;;;2.70;;
37407;SDS011;24866;50.248;8.252;2023-05-29T01:44:18;5.03;;;2.75;;
37407;SDS011;24866;50.248;8.252;2023-05-29T01:46:49;6.82;;;2.72;;
37407;SDS011;24866;50.248;8.252;2023-05-29T01:49:20;6.38;;;2.80;;
37407;SDS011;24866;50.248;8.252;2023-05-29T01:51:51;6.50;;;3.35;;
37407;SDS011;24866;50.248;8.252;2023-05-29T01:54:21;6.05;;;3.20;;
37407;SDS011;24866;50.248;8.252;2023-05-29T01:56:53;5.72;;;2.50;;
37407;SDS011;24866;50.248;8.252;2023-05-29T01:59:23;7.72;;;3.08;;
37407;SDS011;24866;50.248;8.252;2023-05-29T02:01:54;6.97;;;3.58;;
37407;SDS011;24866;50.248;8.252;2023-05-29T02:04:24;5.45;;;3.10;;
37407;SDS011;24866;50.248;8.252;2023-05-29T02:06:54;6.00;;;3.45;;
37407;SDS011;24866;50.248;8.252;2023-05-29T02:09:24;6.97;;;3.22;;
37407;SDS011;24866;50.248;8.252;2023-05-29T02:11:55;5.63;;;3.08;;
37407;SDS011;24866;50.248;8.252;2023-05-29T02:14:25;6.20;;;2.85;;
37407;SDS011;24866;50.248;8.252;2023-05-29T02:16:55;7.32;;;3.83;;
37407;SDS011;24866;50.248;8.252;2023-05-29T02:19:25;5.32;;;2.30;;
37407;SDS011;24866;50.248;8.252;2023-05-29T02:21:55;5.30;;;2.70;;
37407;SDS011;24866;50.248;8.252;2023-05-29T02:24:25;6.30;;;2.78;;
37407;SDS011;24866;50.248;8.252;2023-05-29T02:26:56;5.53;;;3.03;;
37407;SDS011;24866;50.248;8.252;2023-05-29T02:29:26;5.25;;;2.72;;
37407;SDS011;24866;50.248;8.252;2023-05-29T02:31:56;6.18;;;3.30;;
37407;SDS011;24866;50.248;8.252;2023-05-29T02:34:26;4.57;;;2.70;;
37407;SDS011;24866;50.248;8.252;2023-05-29T02:36:55;5.32;;;2.80;;
37407;SDS011;24866;50.248;8.252;2023-05-29T02:39:25;6.22;;;3.00;;
37407;SDS011;24866;50.248;8.252;2023-05-29T02:41:57;6.15;;;3.00;;
37407;SDS011;24866;50.248;8.252;2023-05-29T02:44:27;4.82;;;2.80;;
37407;SDS011;24866;50.248;8.252;2023-05-29T02:46:56;4.78;;;3.03;;
37407;SDS011;24866;50.248;8.252;2023-05-29T02:49:26;4.88;;;2.92;;
37407;SDS011;24866;50.248;8.252;2023-05-29T02:51:56;6.30;;;3.30;;
37407;SDS011;24866;50.248;8.252;2023-05-29T02:54:26;6.03;;;2.95;;
37407;SDS011;24866;50.248;8.252;2023-05-29T02:56:57;7.63;;;3.28;;
37407;SDS011;24866;50.248;8.252;2023-05-29T02:59:27;6.07;;;3.03;;
37407;SDS011;24866;50.248;8.252;2023-05-29T03:01:57;5.93;;;3.00;;
37407;SDS011;24866;50.248;8.252;2023-05-29T03:04:27;3.97;;;2.30;;
37407;SDS011;24866;50.248;8.252;2023-05-29T03:06:57;7.10;;;3.20;;
37407;SDS011;24866;50.248;8.252;2023-05-29T03:09:27;5.22;;;3.28;;
37407;SDS011;24866;50.248;8.252;2023-05-29T03:11:58;6.45;;;2.97;;
37407;SDS011;24866;50.248;8.252;2023-05-29T03:14:29;9.55;;;3.20;;
37407;SDS011;24866;50.248;8.252;2023-05-29T03:17:04;7.15;;;3.22;;
37407;SDS011;24866;50.248;8.252;2023-05-29T03:19:34;5.50;;;2.67;;
37407;SDS011;24866;50.248;8.252;2023-05-29T03:22:05;5.70;;;2.65;;
37407;SDS011;24866;50.248;8.252;2023-05-29T03:24:34;5.15;;;2.55;;
37407;SDS011;24866;50.248;8.252;2023-05-29T03:27:06;4.53;;;2.65;;
37407;SDS011;24866;50.248;8.252;2023-05-29T03:29:36;5.95;;;3.10;;
37407;SDS011;24866;50.248;8.252;2023-05-29T03:32:06;6.88;;;2.78;;
37407;SDS011;24866;50.248;8.252;2023-05-29T03:34:36;7.05;;;3.13;;
37407;SDS011;24866;50.248;8.252;2023-05-29T03:37:06;5.47;;;2.70;;
37407;SDS011;24866;50.248;8.252;2023-05-29T03:39:35;4.75;;;2.53;;
37407;SDS011;24866;50.248;8.252;2023-05-29T03:42:07;5.78;;;3.10;;
37407;SDS011;24866;50.248;8.252;2023-05-29T03:44:37;5.20;;;2.95;;
37407;SDS011;24866;50.248;8.252;2023-05-29T03:47:07;4.95;;;2.38;;
37407;SDS011;24866;50.248;8.252;2023-05-29T03:49:37;5.25;;;3.03;;
37407;SDS011;24866;50.248;8.252;2023-05-29T03:52:07;4.97;;;2.95;;
37407;SDS011;24866;50.248;8.252;2023-05-29T03:54:37;6.38;;;3.03;;
37407;SDS011;24866;50.248;8.252;2023-05-29T03:57:08;7.25;;;2.80;;
37407;SDS011;24866;50.248;8.252;2023-05-29T03:59:38;3.85;;;2.60;;
37407;SDS011;24866;50.248;8.252;2023-05-29T04:02:08;5.38;;;3.28;;
37407;SDS011;24866;50.248;8.252;2023-05-29T04:04:38;4.47;;;2.58;;
37407;SDS011;24866;50.248;8.252;2023-05-29T04:07:08;7.50;;;2.72;;
37407;SDS011;24866;50.248;8.252;2023-05-29T04:09:39;5.55;;;2.83;;
37407;SDS011;24866;50.248;8.252;2023-05-29T04:12:10;5.53;;;3.22;;
37407;SDS011;24866;50.248;8.252;2023-05-29T04:17:11;6.22;;;3.08;;
37407;SDS011;24866;50.248;8.252;2023-05-29T04:19:41;6.55;;;2.80;;
37407;SDS011;24866;50.248;8.252;2023-05-29T04:22:11;10.05;;;2.65;;
37407;SDS011;24866;50.248;8.252;2023-05-29T04:24:41;8.05;;;3.05;;
37407;SDS011;24866;50.248;8.252;2023-05-29T04:27:12;7.97;;;3.50;;
37407;SDS011;24866;50.248;8.252;2023-05-29T04:29:42;6.10;;;2.72;;
37407;SDS011;24866;50.248;8.252;2023-05-29T04:32:12;9.55;;;4.03;;
37407;SDS011;24866;50.248;8.252;2023-05-29T04:34:43;7.45;;;4.15;;
37407;SDS011;24866;50.248;8.252;2023-05-29T04:37:13;9.45;;;4.18;;
37407;SDS011;24866;50.248;8.252;2023-05-29T04:39:43;7.15;;;4.32;;
37407;SDS011;24866;50.248;8.252;2023-05-29T04:42:14;7.72;;;4.30;;
37407;SDS011;24866;50.248;8.252;2023-05-29T04:44:44;13.00;;;4.75;;
37407;SDS011;24866;50.248;8.252;2023-05-29T04:47:14;11.60;;;5.18;;
37407;SDS011;24866;50.248;8.252;2023-05-29T04:49:44;9.52;;;4.10;;
37407;SDS011;24866;50.248;8.252;2023-05-29T04:52:16;11.65;;;5.40;;
37407;SDS011;24866;50.248;8.252;2023-05-29T04:54:46;9.73;;;4.25;;
37407;SDS011;24866;50.248;8.252;2023-05-29T04:57:18;13.38;;;5.40;;
37407;SDS011;24866;50.248;8.252;2023-05-29T04:59:48;9.43;;;4.40;;
37407;SDS011;24866;50.248;8.252;2023-05-29T05:02:18;8.93;;;4.85;;
37407;SDS011;24866;50.248;8.252;2023-05-29T05:04:48;11.32;;;4.85;;
37407;SDS011;24866;50.248;8.252;2023-05-29T05:07:18;8.25;;;4.57;;
37407;SDS011;24866;50.248;8.252;2023-05-29T05:09:48;10.80;;;4.82;;
37407;SDS011;24866;50.248;8.252;2023-05-29T05:12:19;11.77;;;5.47;;
37407;SDS011;24866;50.248;8.252;2023-05-29T05:14:49;10.60;;;4.90;;
37407;SDS011;24866;50.248;8.252;2023-05-29T05:17:19;11.52;;;5.13;;
37407;SDS011;24866;50.248;8.252;2023-05-29T05:19:49;9.23;;;4.20;;
37407;SDS011;24866;50.248;8.252;2023-05-29T05:22:20;12.75;;;5.03;;
37407;SDS011;24866;50.248;8.252;2023-05-29T05:24:50;9.15;;;4.68;;
37407;SDS011;24866;50.248;8.252;2023-05-29T05:27:22;13.02;;;5.07;;
37407;SDS011;24866;50.248;8.252;2023-05-29T05:29:52;9.85;;;5.10;;
37407;SDS011;24866;50.248;8.252;2023-05-29T05:32:24;7.50;;;4.38;;
37407;SDS011;24866;50.248;8.252;2023-05-29T05:34:54;10.30;;;5.22;;
37407;SDS011;24866;50.248;8.252;2023-05-29T05:37:26;7.47;;;4.60;;
37407;SDS011;24866;50.248;8.252;2023-05-29T05:39:56;9.50;;;4.72;;
37407;SDS011;24866;50.248;8.252;2023-05-29T05:42:29;13.07;;;5.10;;
37407;SDS011;24866;50.248;8.252;2023-05-29T05:44:59;10.63;;;5.25;;
37407;SDS011;24866;50.248;8.252;2023-05-29T05:47:29;9.45;;;4.75;;
37407;SDS011;24866;50.248;8.252;2023-05-29T05:49:59;9.82;;;4.55;;
37407;SDS011;24866;50.248;8.252;2023-05-29T05:52:29;12.07;;;5.35;;
37407;SDS011;24866;50.248;8.252;2023-05-29T05:55:00;11.02;;;4.25;;
37407;SDS011;24866;50.248;8.252;2023-05-29T05:57:32;9.10;;;5.00;;
37407;SDS011;24866;50.248;8.252;2023-05-29T06:00:04;8.48;;;4.80;;
37407;SDS011;24866;50.248;8.252;2023-05-29T06:02:39;9.55;;;4.43;;
37407;SDS011;24866;50.248;8.252;2023-05-29T06:05:10;10.55;;;4.82;;
37407;SDS011;24866;50.248;8.252;2023-05-29T06:07:40;12.45;;;4.88;;
37407;SDS011;24866;50.248;8.252;2023-05-29T06:10:10;9.20;;;5.00;;
37407;SDS011;24866;50.248;8.252;2023-05-29T06:12:42;7.78;;;4.35;;
37407;SDS011;24866;50.248;8.252;2023-05-29T06:15:12;9.45;;;4.72;;
37407;SDS011;24866;50.248;8.252;2023-05-29T06:17:42;8.93;;;4.30;;
37407;SDS011;24866;50.248;8.252;2023-05-29T06:20:12;7.53;;;4.30;;
37407;SDS011;24866;50.248;8.252;2023-05-29T06:22:42;9.27;;;5.30;;
37407;SDS011;24866;50.248;8.252;2023-05-29T06:25:18;11.40;;;4.60;;
37407;SDS011;24866;50.248;8.252;2023-05-29T06:27:50;8.98;;;4.68;;
37407;SDS011;24866;50.248;8.252;2023-05-29T06:30:20;9.93;;;4.45;;
37407;SDS011;24866;50.248;8.252;2023-05-29T06:32:50;11.00;;;3.88;;
37407;SDS011;24866;50.248;8.252;2023-05-29T06:35:20;9.40;;;5.10;;
37407;SDS011;24866;50.248;8.252;2023-05-29T06:37:50;10.48;;;3.65;;
37407;SDS011;24866;50.248;8.252;2023-05-29T06:40:20;7.47;;;4.50;;
37407;SDS011;24866;50.248;8.252;2023-05-29T06:42:52;10.98;;;5.15;;
37407;SDS011;24866;50.248;8.252;2023-05-29T06:45:22;8.77;;;4.28;;
37407;SDS011;24866;50.248;8.252;2023-05-29T06:47:51;9.50;;;3.97;;
37407;SDS011;24866;50.248;8.252;2023-05-29T06:50:23;8.98;;;3.92;;
37407;SDS011;24866;50.248;8.252;2023-05-29T06:52:53;8.75;;;4.68;;
37407;SDS011;24866;50.248;8.252;2023-05-29T06:55:23;7.82;;;3.60;;
37407;SDS011;24866;50.248;8.252;2023-05-29T06:57:54;8.90;;;3.90;;
37407;SDS011;24866;50.248;8.252;2023-05-29T07:00:24;9.52;;;4.10;;
37407;SDS011;24866;50.248;8.252;2023-05-29T07:02:54;12.50;;;4.38;;
37407;SDS011;24866;50.248;8.252;2023-05-29T07:05:26;11.25;;;4.65;;
37407;SDS011;24866;50.248;8.252;2023-05-29T07:07:58;10.13;;;4.10;;
37407;SDS011;24866;50.248;8.252;2023-05-29T07:10:28;9.10;;;3.78;;
37407;SDS011;24866;50.248;8.252;2023-05-29T07:12:59;10.93;;;4.78;;
37407;SDS011;24866;50.248;8.252;2023-05-29T07:15:29;9.35;;;3.97;;
37407;SDS011;24866;50.248;8.252;2023-05-29T07:17:59;6.38;;;3.00;;
37407;SDS011;24866;50.248;8.252;2023-05-29T07:20:29;6.45;;;3.47;;
37407;SDS011;24866;50.248;8.252;2023-05-29T07:22:59;9.98;;;4.45;;
37407;SDS011;24866;50.248;8.252;2023-05-29T07:25:29;7.72;;;4.25;;
37407;SDS011;24866;50.248;8.252;2023-05-29T07:28:00;7.75;;;3.92;;
37407;SDS011;24866;50.248;8.252;2023-05-29T07:30:33;8.57;;;4.72;;
37407;SDS011;24866;50.248;8.252;2023-05-29T07:33:07;11.98;;;4.80;;
37407;SDS011;24866;50.248;8.252;2023-05-29T07:35:38;12.13;;;5.07;;
37407;SDS011;24866;50.248;8.252;2023-05-29T07:38:08;16.17;;;5.38;;
37407;SDS011;24866;50.248;8.252;2023-05-29T07:40:38;7.82;;;4.30;;
37407;SDS011;24866;50.248;8.252;2023-05-29T07:43:09;11.32;;;4.18;;
37407;SDS011;24866;50.248;8.252;2023-05-29T07:45:39;7.97;;;4.55;;
37407;SDS011;24866;50.248;8.252;2023-05-29T07:48:09;7.55;;;3.35;;
37407;SDS011;24866;50.248;8.252;2023-05-29T07:50:40;8.35;;;4.65;;
37407;SDS011;24866;50.248;8.252;2023-05-29T07:53:10;6.32;;;3.05;;
37407;SDS011;24866;50.248;8.252;2023-05-29T07:55:40;10.05;;;3.08;;
37407;SDS011;24866;50.248;8.252;2023-05-29T07:58:11;8.75;;;3.78;;
37407;SDS011;24866;50.248;8.252;2023-05-29T08:00:41;10.15;;;4.18;;
37407;SDS011;24866;50.248;8.252;2023-05-29T08:03:12;10.27;;;4.40;;
37407;SDS011;24866;50.248;8.252;2023-05-29T08:05:43;8.90;;;4.10;;
37407;SDS011;24866;50.248;8.252;2023-05-29T08:08:13;7.15;;;3.75;;
37407;SDS011;24866;50.248;8.252;2023-05-29T08:10:43;10.77;;;3.78;;
37407;SDS011;24866;50.248;8.252;2023-05-29T08:13:15;6.88;;;4.22;;
37407;SDS011;24866;50.248;8.252;2023-05-29T08:15:45;9.60;;;4.38;;
37407;SDS011;24866;50.248;8.252;2023-05-29T08:18:15;9.35;;;4.60;;
37407;SDS011;24866;50.248;8.252;2023-05-29T08:20:45;6.65;;;3.22;;
37407;SDS011;24866;50.248;8.252;2023-05-29T08:23:15;7.15;;;4.07;;
37407;SDS011;24866;50.248;8.252;2023-05-29T08:25:45;7.97;;;3.80;;
37407;SDS011;24866;50.248;8.252;2023-05-29T08:28:17;8.52;;;4.05;;
37407;SDS011;24866;50.248;8.252;2023-05-29T08:30:47;10.68;;;4.28;;
37407;SDS011;24866;50.248;8.252;2023-05-29T08:33:17;7.60;;;3.55;;
37407;SDS011;24866;50.248;8.252;2023-05-29T08:35:47;17.17;;;4.07;;
37407;SDS011;24866;50.248;8.252;2023-05-29T08:38:16;9.38;;;4.18;;
37407;SDS011;24866;50.248;8.252;2023-05-29T08:40:48;11.43;;;4.70;;
37407;SDS011;24866;50.248;8.252;2023-05-29T08:43:21;8.30;;;3.15;;
37407;SDS011;24866;50.248;8.252;2023-05-29T08:45:52;8.75;;;3.22;;
37407;SDS011;24866;50.248;8.252;2023-05-29T08:48:23;10.13;;;4.30;;
37407;SDS011;24866;50.248;8.252;2023-05-29T08:50:54;8.07;;;3.88;;
37407;SDS011;24866;50.248;8.252;2023-05-29T08:53:25;8.25;;;3.45;;
37407;SDS011;24866;50.248;8.252;2023-05-29T08:55:55;7.30;;;3.60;;
37407;SDS011;24866;50.248;8.252;2023-05-29T08:58:28;8.32;;;4.25;;
37407;SDS011;24866;50.248;8.252;2023-05-29T09:00:58;9.27;;;4.20;;
37407;SDS011;24866;50.248;8.252;2023-05-29T09:03:28;8.60;;;3.60;;
37407;SDS011;24866;50.248;8.252;2023-05-29T09:05:59;6.90;;;3.00;;
37407;SDS011;24866;50.248;8.252;2023-05-29T09:08:31;9.32;;;3.30;;
37407;SDS011;24866;50.248;8.252;2023-05-29T09:11:01;7.55;;;3.38;;
37407;SDS011;24866;50.248;8.252;2023-05-29T09:13:32;7.38;;;3.42;;
37407;SDS011;24866;50.248;8.252;2023-05-29T09:16:02;7.85;;;3.40;;
37407;SDS011;24866;50.248;8.252;2023-05-29T09:18:34;7.95;;;3.55;;
37407;SDS011;24866;50.248;8.252;2023-05-29T09:21:06;7.95;;;3.38;;
37407;SDS011;24866;50.248;8.252;2023-05-29T09:23:37;6.50;;;2.67;;
37407;SDS011;24866;50.248;8.252;2023-05-29T09:26:07;8.73;;;3.80;;
37407;SDS011;24866;50.248;8.252;2023-05-29T09:28:39;8.73;;;3.83;;
37407;SDS011;24866;50.248;8.252;2023-05-29T09:31:13;9.05;;;3.67;;
37407;SDS011;24866;50.248;8.252;2023-05-29T09:33:48;7.15;;;3.88;;
37407;SDS011;24866;50.248;8.252;2023-05-29T09:36:19;8.93;;;3.70;;
37407;SDS011;24866;50.248;8.252;2023-05-29T09:38:51;8.60;;;3.85;;
37407;SDS011;24866;50.248;8.252;2023-05-29T09:41:21;6.13;;;3.50;;
37407;SDS011;24866;50.248;8.252;2023-05-29T09:43:53;8.00;;;3.90;;
37407;SDS011;24866;50.248;8.252;2023-05-29T09:46:24;6.10;;;3.53;;
37407;SDS011;24866;50.248;8.252;2023-05-29T09:48:54;6.30;;;3.63;;
37407;SDS011;24866;50.248;8.252;2023-05-29T09:51:30;10.15;;;3.88;;
37407;SDS011;24866;50.248;8.252;2023-05-29T09:54:02;5.57;;;3.53;;
37407;SDS011;24866;50.248;8.252;2023-05-29T09:56:43;7.78;;;4.03;;
37407;SDS011;24866;50.248;8.252;2023-05-29T09:59:15;7.78;;;2.75;;
37407;SDS011;24866;50.248;8.252;2023-05-29T10:01:46;8.40;;;3.67;;
37407;SDS011;24866;50.248;8.252;2023-05-29T10:04:16;6.35;;;3.50;;
37407;SDS011;24866;50.248;8.252;2023-05-29T10:06:46;10.25;;;4.25;;
37407;SDS011;24866;50.248;8.252;2023-05-29T10:09:18;8.48;;;3.80;;
37407;SDS011;24866;50.248;8.252;2023-05-29T10:11:49;10.13;;;3.90;;
37407;SDS011;24866;50.248;8.252;2023-05-29T10:14:23;8.02;;;3.33;;
37407;SDS011;24866;50.248;8.252;2023-05-29T10:16:55;5.65;;;3.50;;
37407;SDS011;24866;50.248;8.252;2023-05-29T10:19:31;10.48;;;3.72;;
37407;SDS011;24866;50.248;8.252;2023-05-29T10:22:05;6.88;;;3.60;;
37407;SDS011;24866;50.248;8.252;2023-05-29T10:24:36;9.40;;;3.55;;
37407;SDS011;24866;50.248;8.252;2023-05-29T10:27:06;6.40;;;3.53;;
37407;SDS011;24866;50.248;8.252;2023-05-29T10:29:39;8.07;;;3.78;;
37407;SDS011;24866;50.248;8.252;2023-05-29T10:32:19;7.45;;;3.08;;
37407;SDS011;24866;50.248;8.252;2023-05-29T10:34:55;7.25;;;3.33;;
37407;SDS011;24866;50.248;8.252;2023-05-29T10:37:31;7.97;;;3.78;;
37407;SDS011;24866;50.248;8.252;2023-05-29T10:40:06;6.88;;;3.35;;
37407;SDS011;24866;50.248;8.252;2023-05-29T10:42:41;6.88;;;3.67;;
37407;SDS011;24866;50.248;8.252;2023-05-29T10:51:10;9.20;;;3.42;;
37407;SDS011;24866;50.248;8.252;2023-05-29T10:53:54;7.72;;;3.85;;
37407;SDS011;24866;50.248;8.252;2023-05-29T10:56:28;6.88;;;3.40;;
37407;SDS011;24866;50.248;8.252;2023-05-29T10:58:59;5.18;;;3.10;;
37407;SDS011;24866;50.248;8.252;2023-05-29T11:01:34;6.75;;;3.35;;
37407;SDS011;24866;50.248;8.252;2023-05-29T11:04:27;7.07;;;3.45;;
37407;SDS011;24866;50.248;8.252;2023-05-29T11:06:59;6.18;;;3.10;;
37407;SDS011;24866;50.248;8.252;2023-05-29T11:09:34;8.77;;;4.05;;
37407;SDS011;24866;50.248;8.252;2023-05-29T11:12:21;4.87;;;2.93;;
37407;SDS011;24866;50.248;8.252;2023-05-29T11:15:02;6.40;;;3.53;;
37407;SDS011;24866;50.248;8.252;2023-05-29T11:20:35;7.22;;;3.05;;
37407;SDS011;24866;50.248;8.252;2023-05-29T11:23:06;5.78;;;3.28;;
37407;SDS011;24866;50.248;8.252;2023-05-29T11:25:37;6.30;;;3.50;;
37407;SDS011;24866;50.248;8.252;2023-05-29T11:28:08;8.60;;;3.05;;
37407;SDS011;24866;50.248;8.252;2023-05-29T11:30:42;5.80;;;3.00;;
37407;SDS011;24866;50.248;8.252;2023-05-29T11:33:23;7.30;;;3.50;;
37407;SDS011;24866;50.248;8.252;2023-05-29T11:35:56;5.05;;;3.10;;
37407;SDS011;24866;50.248;8.252;2023-05-29T11:38:27;6.35;;;3.42;;
37407;SDS011;24866;50.248;8.252;2023-05-29T11:40:57;6.07;;;3.15;;
37407;SDS011;24866;50.248;8.252;2023-05-29T11:43:30;6.85;;;3.00;;
37407;SDS011;24866;50.248;8.252;2023-05-29T11:46:00;5.57;;;3.20;;
37407;SDS011;24866;50.248;8.252;2023-05-29T11:48:30;5.35;;;2.80;;
37407;SDS011;24866;50.248;8.252;2023-05-29T11:51:04;5.88;;;3.45;;
37407;SDS011;24866;50.248;8.252;2023-05-29T11:53:36;5.80;;;2.75;;
37407;SDS011;24866;50.248;8.252;2023-05-29T11:56:10;6.75;;;3.00;;
37407;SDS011;24866;50.248;8.252;2023-05-29T11:58:40;5.55;;;3.22;;
37407;SDS011;24866;50.248;8.252;2023-05-29T12:01:10;5.15;;;3.03;;
37407;SDS011;24866;50.248;8.252;2023-05-29T12:03:40;6.80;;;2.58;;
37407;SDS011;24866;50.248;8.252;2023-05-29T12:06:12;4.68;;;2.47;;
37407;SDS011;24866;50.248;8.252;2023-05-29T12:08:42;6.88;;;2.83;;
37407;SDS011;24866;50.248;8.252;2023-05-29T12:11:12;13.18;;;3.33;;
37407;SDS011;24866;50.248;8.252;2023-05-29T12:13:42;6.10;;;3.30;;
37407;SDS011;24866;50.248;8.252;2023-05-29T12:16:12;6.50;;;3.40;;
37407;SDS011;24866;50.248;8.252;2023-05-29T12:18:42;6.10;;;2.88;;
37407;SDS011;24866;50.248;8.252;2023-05-29T12:21:13;5.75;;;2.85;;
37407;SDS011;24866;50.248;8.252;2023-05-29T12:23:43;8.27;;;3.80;;
37407;SDS011;24866;50.248;8.252;2023-05-29T12:26:13;7.25;;;2.90;;
37407;SDS011;24866;50.248;8.252;2023-05-29T12:28:43;5.47;;;3.00;;
37407;SDS011;24866;50.248;8.252;2023-05-29T12:31:14;8.77;;;3.10;;
37407;SDS011;24866;50.248;8.252;2023-05-29T12:34:00;6.20;;;3.15;;
37407;SDS011;24866;50.248;8.252;2023-05-29T12:36:32;5.93;;;3.60;;
37407;SDS011;24866;50.248;8.252;2023-05-29T12:39:04;7.57;;;3.25;;
37407;SDS011;24866;50.248;8.252;2023-05-29T12:41:37;6.63;;;3.25;;
37407;SDS011;24866;50.248;8.252;2023-05-29T12:44:08;6.28;;;2.53;;
37407;SDS011;24866;50.248;8.252;2023-05-29T12:46:38;5.07;;;2.78;;
37407;SDS011;24866;50.248;8.252;2023-05-29T12:49:12;5.30;;;2.60;;
37407;SDS011;24866;50.248;8.252;2023-05-29T12:51:45;6.38;;;3.05;;
37407;SDS011;24866;50.248;8.252;2023-05-29T12:54:15;6.85;;;2.80;;
37407;SDS011;24866;50.248;8.252;2023-05-29T12:56:45;6.03;;;2.90;;
37407;SDS011;24866;50.248;8.252;2023-05-29T12:59:18;4.43;;;2.60;;
37407;SDS011;24866;50.248;8.252;2023-05-29T13:01:48;6.22;;;2.92;;
37407;SDS011;24866;50.248;8.252;2023-05-29T13:04:18;8.07;;;3.25;;
37407;SDS011;24866;50.248;8.252;2023-05-29T13:06:49;6.38;;;3.17;;
37407;SDS011;24866;50.248;8.252;2023-05-29T13:09:19;5.68;;;3.03;;
37407;SDS011;24866;50.248;8.252;2023-05-29T13:11:49;4.63;;;2.85;;
37407;SDS011;24866;50.248;8.252;2023-05-29T13:14:21;6.57;;;3.20;;
37407;SDS011;24866;50.248;8.252;2023-05-29T13:16:51;6.63;;;3.17;;
37407;SDS011;24866;50.248;8.252;2023-05-29T13:19:20;8.13;;;3.00;;
37407;SDS011;24866;50.248;8.252;2023-05-29T13:21:52;4.70;;;2.97;;
37407;SDS011;24866;50.248;8.252;2023-05-29T13:24:22;7.38;;;3.00;;
37407;SDS011;24866;50.248;8.252;2023-05-29T13:26:52;5.53;;;2.90;;
37407;SDS011;24866;50.248;8.252;2023-05-29T13:29:22;6.15;;;2.67;;
37407;SDS011;24866;50.248;8.252;2023-05-29T13:31:52;6.47;;;3.33;;
37407;SDS011;24866;50.248;8.252;2023-05-29T13:34:22;6.43;;;3.40;;
37407;SDS011;24866;50.248;8.252;2023-05-29T13:36:55;6.67;;;2.77;;
37407;SDS011;24866;50.248;8.252;2023-05-29T13:39:25;6.00;;;3.67;;
37407;SDS011;24866;50.248;8.252;2023-05-29T13:41:54;8.73;;;3.90;;
37407;SDS011;24866;50.248;8.252;2023-05-29T13:44:24;5.10;;;2.88;;
37407;SDS011;24866;50.248;8.252;2023-05-29T13:46:54;8.50;;;3.88;;
37407;SDS011;24866;50.248;8.252;2023-05-29T13:49:25;6.88;;;3.42;;
37407;SDS011;24866;50.248;8.252;2023-05-29T13:51:56;6.55;;;3.38;;
37407;SDS011;24866;50.248;8.252;2023-05-29T13:54:26;7.32;;;3.28;;
37407;SDS011;24866;50.248;8.252;2023-05-29T13:56:57;5.97;;;3.00;;
37407;SDS011;24866;50.248;8.252;2023-05-29T13:59:28;7.95;;;3.42;;
37407;SDS011;24866;50.248;8.252;2023-05-29T14:01:58;5.38;;;2.95;;
37407;SDS011;24866;50.248;8.252;2023-05-29T14:04:28;6.85;;;3.58;;
37407;SDS011;24866;50.248;8.252;2023-05-29T14:07:00;6.95;;;2.90;;
37407;SDS011;24866;50.248;8.252;2023-05-29T14:09:30;7.38;;;3.58;;
37407;SDS011;24866;50.248;8.252;2023-05-29T14:12:00;5.40;;;3.22;;
37407;SDS011;24866;50.248;8.252;2023-05-29T14:14:34;6.32;;;3.20;;
37407;SDS011;24866;50.248;8.252;2023-05-29T14:17:05;9.18;;;3.55;;
37407;SDS011;24866;50.248;8.252;2023-05-29T14:19:35;7.07;;;2.97;;
37407;SDS011;24866;50.248;8.252;2023-05-29T14:22:06;7.38;;;3.03;;
37407;SDS011;24866;50.248;8.252;2023-05-29T14:24:36;8.65;;;3.22;;
37407;SDS011;24866;50.248;8.252;2023-05-29T14:27:06;5.88;;;2.88;;
37407;SDS011;24866;50.248;8.252;2023-05-29T14:29:36;6.50;;;3.13;;
37407;SDS011;24866;50.248;8.252;2023-05-29T14:32:07;7.55;;;3.78;;
37407;SDS011;24866;50.248;8.252;2023-05-29T14:34:36;7.95;;;3.33;;
37407;SDS011;24866;50.248;8.252;2023-05-29T14:37:09;5.78;;;3.63;;
37407;SDS011;24866;50.248;8.252;2023-05-29T14:39:39;10.07;;;3.47;;
37407;SDS011;24866;50.248;8.252;2023-05-29T14:42:09;5.55;;;3.35;;
37407;SDS011;24866;50.248;8.252;2023-05-29T14:44:41;5.95;;;3.58;;
37407;SDS011;24866;50.248;8.252;2023-05-29T14:47:11;5.78;;;3.00;;
37407;SDS011;24866;50.248;8.252;2023-05-29T14:49:41;8.88;;;3.20;;
37407;SDS011;24866;50.248;8.252;2023-05-29T14:52:12;6.55;;;3.20;;
37407;SDS011;24866;50.248;8.252;2023-05-29T14:54:42;8.60;;;3.40;;
37407;SDS011;24866;50.248;8.252;2023-05-29T14:57:12;5.93;;;3.03;;
37407;SDS011;24866;50.248;8.252;2023-05-29T14:59:42;7.15;;;3.97;;
37407;SDS011;24866;50.248;8.252;2023-05-29T15:02:12;8.02;;;3.75;;
37407;SDS011;24866;50.248;8.252;2023-05-29T15:04:42;5.45;;;3.22;;
37407;SDS011;24866;50.248;8.252;2023-05-29T15:07:14;11.43;;;3.28;;
37407;SDS011;24866;50.248;8.252;2023-05-29T15:09:45;6.85;;;3.17;;
37407;SDS011;24866;50.248;8.252;2023-05-29T15:12:15;4.05;;;2.97;;
37407;SDS011;24866;50.248;8.252;2023-05-29T15:14:45;5.88;;;2.88;;
37407;SDS011;24866;50.248;8.252;2023-05-29T15:17:15;5.57;;;2.83;;
37407;SDS011;24866;50.248;8.252;2023-05-29T15:19:45;7.03;;;3.10;;
37407;SDS011;24866;50.248;8.252;2023-05-29T15:22:17;5.38;;;2.72;;
37407;SDS011;24866;50.248;8.252;2023-05-29T15:24:47;6.25;;;3.20;;